createdAt,value
2018-10-02T00:00:46.916Z,99.99
2018-10-02T00:01:46.834Z,99.99
2018-10-02T00:02:46.853Z,99.99
2018-10-02T00:03:46.870Z,99.99
2018-10-02T00:04:46.631Z,99.99
2018-10-02T00:05:46.904Z,99.99
2018-10-02T00:07:46.947Z,99.99
2018-10-02T00:08:46.961Z,99.99
2018-10-02T00:09:46.719Z,99.99
2018-10-02T00:10:46.994Z,99.99
2018-10-02T00:11:47.013Z,99.99
2018-10-02T00:13:01.696Z,99.99
2018-10-02T00:13:47.051Z,99.99
2018-10-02T00:14:47.067Z,99.99
2018-10-02T00:15:47.086Z,99.99
2018-10-02T00:16:47.098Z,99.99
2018-10-02T00:17:47.122Z,99.99
2018-10-02T00:18:47.135Z,99.99
2018-10-02T00:19:47.153Z,99.99
2018-10-02T00:20:46.917Z,99.99
2018-10-02T00:21:46.932Z,99.99
2018-10-02T00:22:47.206Z,99.99
2018-10-02T00:24:47.249Z,99.99
2018-10-02T00:25:47.259Z,99.99
2018-10-02T00:26:47.021Z,99.99
2018-10-02T00:27:47.295Z,99.99
2018-10-02T00:29:01.978Z,99.99
2018-10-02T00:29:47.075Z,99.99
2018-10-02T00:30:47.348Z,99.99
2018-10-02T00:31:47.593Z,99.99
2018-10-02T00:32:47.386Z,99.99
2018-10-02T00:33:47.403Z,99.99
2018-10-02T00:34:47.160Z,99.99
2018-10-02T00:35:47.437Z,99.99
2018-10-02T00:36:47.453Z,99.99
2018-10-02T00:37:47.471Z,99.99
2018-10-02T00:38:47.489Z,99.99
2018-10-02T00:39:47.507Z,99.99
2018-10-02T00:40:47.526Z,99.99
2018-10-02T00:41:47.542Z,99.99
2018-10-02T00:42:47.561Z,99.99
2018-10-02T00:44:02.240Z,99.99
2018-10-02T00:44:47.597Z,99.99
2018-10-02T00:45:47.613Z,99.99
2018-10-02T00:46:47.631Z,99.99
2018-10-02T00:47:47.648Z,99.99
2018-10-02T00:48:47.409Z,99.99
2018-10-02T00:49:47.684Z,99.99
2018-10-02T00:50:47.443Z,99.99
2018-10-02T00:51:47.717Z,99.99
2018-10-02T00:52:47.737Z,99.99
2018-10-02T00:53:47.496Z,99.99
2018-10-02T00:54:47.771Z,99.99
2018-10-02T00:55:47.533Z,99.99
2018-10-02T00:56:47.805Z,99.99
2018-10-02T00:57:47.822Z,99.99
2018-10-02T00:58:47.841Z,99.99
2018-10-02T00:59:47.858Z,99.99
2018-10-02T01:00:47.875Z,99.99
2018-10-02T01:01:47.892Z,99.99
2018-10-02T01:02:47.911Z,99.99
2018-10-02T01:03:47.927Z,99.99
2018-10-02T01:04:47.945Z,99.99
2018-10-02T01:05:47.963Z,99.99
2018-10-02T01:06:47.985Z,99.99
2018-10-02T01:07:48.013Z,99.99
2018-10-02T01:08:48.020Z,99.99
2018-10-02T01:09:48.036Z,99.99
2018-10-02T01:12:48.088Z,99.99
2018-10-02T01:13:48.104Z,99.99
2018-10-02T01:14:48.119Z,99.99
2018-10-02T01:16:02.799Z,99.99
2018-10-02T01:16:47.898Z,99.99
2018-10-02T01:17:48.172Z,99.99
2018-10-02T01:18:48.188Z,99.99
2018-10-02T01:19:48.210Z,99.99
2018-10-02T01:20:48.224Z,99.99
2018-10-02T01:21:48.240Z,99.99
2018-10-02T01:22:48.257Z,99.99
2018-10-02T01:23:48.277Z,99.99
2018-10-02T01:25:48.310Z,99.99
2018-10-02T01:27:48.345Z,99.99
2018-10-02T01:28:48.362Z,99.99
2018-10-02T01:29:48.382Z,99.99
2018-10-02T01:30:48.396Z,99.99
2018-10-02T01:32:03.077Z,99.99
2018-10-02T01:32:48.175Z,99.99
2018-10-02T01:33:48.450Z,99.99
2018-10-02T01:34:48.467Z,99.99
2018-10-02T01:35:48.482Z,99.99
2018-10-02T01:36:48.500Z,99.99
2018-10-02T01:37:48.517Z,99.99
2018-10-02T01:38:48.534Z,99.99
2018-10-02T01:39:48.553Z,99.99
2018-10-02T01:40:48.584Z,99.99
2018-10-02T01:41:48.590Z,99.99
2018-10-02T01:42:48.347Z,99.99
2018-10-02T01:44:48.640Z,99.99
2018-10-02T01:45:48.656Z,99.99
2018-10-02T01:46:48.674Z,99.99
2018-10-02T01:48:03.352Z,99.99
2018-10-02T01:48:48.708Z,99.99
2018-10-02T01:49:48.724Z,99.99
2018-10-02T01:50:48.741Z,99.99
2018-10-02T01:51:48.759Z,99.99
2018-10-02T01:52:48.784Z,99.99
2018-10-02T01:53:48.801Z,99.99
2018-10-02T01:54:48.817Z,99.99
2018-10-02T01:55:48.833Z,99.99
2018-10-02T01:56:48.846Z,99.99
2018-10-02T01:57:48.865Z,99.99
2018-10-02T01:58:48.879Z,99.99
2018-10-02T01:59:48.902Z,99.99
2018-10-02T02:00:48.913Z,99.99
2018-10-02T02:01:48.932Z,99.99
2018-10-02T02:02:48.949Z,99.99
2018-10-02T02:04:03.627Z,99.99
2018-10-02T02:04:48.987Z,99.99
2018-10-02T02:05:48.743Z,99.99
2018-10-02T02:06:49.022Z,99.99
2018-10-02T02:07:49.038Z,99.99
2018-10-02T02:08:48.794Z,99.99
2018-10-02T02:09:49.068Z,99.99
2018-10-02T02:10:49.087Z,99.99
2018-10-02T02:11:49.102Z,99.99
2018-10-02T02:12:49.121Z,99.99
2018-10-02T02:13:49.139Z,99.99
2018-10-02T02:15:49.171Z,99.99
2018-10-02T02:16:49.191Z,99.99
2018-10-02T02:17:49.209Z,99.99
2018-10-02T02:19:03.885Z,99.99
2018-10-02T02:19:49.340Z,99.99
2018-10-02T02:20:49.258Z,99.99
2018-10-02T02:21:49.273Z,99.99
2018-10-02T02:22:49.291Z,99.99
2018-10-02T02:23:49.328Z,99.99
2018-10-02T02:24:49.334Z,99.99
2018-10-02T02:25:49.344Z,99.99
2018-10-02T02:27:49.375Z,99.99
2018-10-02T02:29:49.437Z,99.99
2018-10-02T02:30:49.428Z,99.99
2018-10-02T02:31:49.453Z,99.99
2018-10-02T02:32:49.465Z,99.99
2018-10-02T02:33:49.222Z,99.99
2018-10-02T02:34:49.497Z,99.99
2018-10-02T02:35:49.571Z,99.99
2018-10-02T02:36:49.532Z,99.99
2018-10-02T02:37:49.549Z,99.99
2018-10-02T02:38:49.319Z,99.99
2018-10-02T02:39:49.581Z,99.99
2018-10-02T02:40:49.600Z,99.99
2018-10-02T02:41:49.617Z,99.99
2018-10-02T02:42:49.641Z,99.99
2018-10-02T02:43:49.655Z,99.99
2018-10-02T02:44:49.665Z,99.99
2018-10-02T02:45:49.692Z,99.99
2018-10-02T02:46:49.699Z,99.99
2018-10-02T02:47:49.718Z,99.99
2018-10-02T02:48:49.938Z,99.99
2018-10-02T02:49:49.494Z,99.99
2018-10-02T02:51:04.429Z,99.99
2018-10-02T02:51:49.784Z,99.99
2018-10-02T02:52:49.809Z,99.99
2018-10-02T02:53:49.827Z,99.99
2018-10-02T02:54:49.838Z,99.99
2018-10-02T02:56:49.878Z,99.99
2018-10-02T02:57:49.887Z,99.99
2018-10-02T02:58:49.909Z,99.99
2018-10-02T03:00:49.936Z,99.99
2018-10-02T03:01:49.955Z,99.99
2018-10-02T03:02:49.969Z,99.99
2018-10-02T03:03:49.991Z,99.99
2018-10-02T03:04:50.003Z,99.99
2018-10-02T03:05:49.764Z,99.99
2018-10-02T03:07:04.703Z,99.99
2018-10-02T03:07:50.056Z,99.99
2018-10-02T03:08:50.081Z,99.99
2018-10-02T03:09:50.095Z,99.99
2018-10-02T03:10:50.112Z,99.99
2018-10-02T03:11:50.127Z,99.99
2018-10-02T03:12:50.140Z,99.99
2018-10-02T03:13:50.164Z,99.99
2018-10-02T03:14:50.173Z,99.99
2018-10-02T03:15:50.188Z,99.99
2018-10-02T03:16:50.212Z,99.99
2018-10-02T03:17:50.225Z,99.99
2018-10-02T03:18:50.243Z,99.99
2018-10-02T03:19:50.263Z,99.99
2018-10-02T03:20:50.280Z,99.99
2018-10-02T03:21:50.114Z,99.99
2018-10-02T03:23:04.969Z,99.99
2018-10-02T03:23:50.327Z,99.99
2018-10-02T03:24:50.343Z,99.99
2018-10-02T03:25:50.381Z,99.99
2018-10-02T03:26:50.374Z,99.99
2018-10-02T03:27:50.135Z,99.99
2018-10-02T03:28:50.153Z,99.99
2018-10-02T03:29:50.427Z,99.99
2018-10-02T03:30:50.544Z,99.99
2018-10-02T03:31:50.460Z,99.99
2018-10-02T03:33:50.495Z,99.99
2018-10-02T03:34:50.511Z,99.99
2018-10-02T03:35:50.547Z,99.99
2018-10-02T03:36:50.569Z,99.99
2018-10-02T03:37:50.667Z,99.99
2018-10-02T03:39:05.239Z,99.99
2018-10-02T03:39:50.620Z,99.99
2018-10-02T03:40:51.617Z,99.99
2018-10-02T03:41:50.627Z,99.99
2018-10-02T03:42:50.643Z,99.99
2018-10-02T03:43:50.669Z,99.99
2018-10-02T03:44:50.685Z,99.99
2018-10-02T03:45:50.706Z,99.99
2018-10-02T03:46:50.713Z,99.99
2018-10-02T03:47:50.470Z,99.99
2018-10-02T03:48:51.077Z,99.99
2018-10-02T03:49:50.764Z,99.99
2018-10-02T03:50:50.779Z,99.99
2018-10-02T03:51:50.538Z,99.99
2018-10-02T03:52:50.816Z,99.99
2018-10-02T03:54:05.491Z,99.99
2018-10-02T03:54:50.846Z,99.99
2018-10-02T03:55:50.607Z,99.99
2018-10-02T03:56:50.878Z,99.99
2018-10-02T03:57:50.896Z,99.99
2018-10-02T03:58:50.914Z,99.99
2018-10-02T03:59:50.930Z,99.99
2018-10-02T04:00:50.948Z,99.99
2018-10-02T04:01:50.971Z,99.99
2018-10-02T04:02:50.979Z,99.99
2018-10-02T04:03:50.997Z,99.99
2018-10-02T04:04:51.022Z,99.99
2018-10-02T04:05:51.035Z,99.99
2018-10-02T04:07:51.064Z,99.99
2018-10-02T04:08:51.090Z,99.99
2018-10-02T04:09:50.843Z,99.99
2018-10-02T04:10:51.117Z,99.99
2018-10-02T04:11:51.134Z,99.99
2018-10-02T04:12:51.149Z,99.99
2018-10-02T04:13:50.911Z,99.99
2018-10-02T04:14:51.182Z,99.99
2018-10-02T04:15:51.198Z,99.99
2018-10-02T04:16:50.958Z,99.99
2018-10-02T04:17:51.234Z,99.99
2018-10-02T04:19:51.265Z,99.99
2018-10-02T04:21:51.299Z,99.99
2018-10-02T04:22:51.319Z,99.99
2018-10-02T04:23:51.333Z,99.99
2018-10-02T04:24:51.348Z,99.99
2018-10-02T04:26:06.026Z,99.99
2018-10-02T04:26:51.392Z,99.99
2018-10-02T04:27:51.524Z,99.99
2018-10-02T04:28:51.414Z,99.99
2018-10-02T04:29:51.176Z,99.99
2018-10-02T04:30:51.452Z,99.99
2018-10-02T04:31:51.215Z,99.99
2018-10-02T04:32:51.487Z,99.99
2018-10-02T04:33:51.853Z,99.99
2018-10-02T04:34:51.514Z,99.99
2018-10-02T04:35:51.530Z,99.99
2018-10-02T04:37:51.565Z,99.99
2018-10-02T04:38:51.580Z,99.99
2018-10-02T04:39:51.597Z,99.99
2018-10-02T04:40:51.659Z,99.99
2018-10-02T04:42:06.292Z,99.99
2018-10-02T04:42:51.648Z,99.99
2018-10-02T04:43:51.663Z,99.99
2018-10-02T04:44:51.681Z,99.99
2018-10-02T04:45:51.697Z,99.99
2018-10-02T04:46:51.851Z,99.99
2018-10-02T04:47:51.731Z,99.99
2018-10-02T04:48:51.746Z,99.99
2018-10-02T04:49:51.764Z,99.99
2018-10-02T04:50:51.779Z,99.99
2018-10-02T04:51:51.539Z,99.99
2018-10-02T04:52:51.817Z,99.99
2018-10-02T04:53:51.831Z,99.99
2018-10-02T04:55:51.826Z,99.99
2018-10-02T04:56:51.623Z,99.99
2018-10-02T04:58:06.558Z,99.99
2018-10-02T04:58:51.923Z,99.99
2018-10-02T04:59:51.934Z,99.99
2018-10-02T05:00:51.952Z,99.99
2018-10-02T05:01:51.963Z,99.99
2018-10-02T05:02:51.979Z,99.99
2018-10-02T05:03:52.000Z,99.99
2018-10-02T05:04:52.014Z,99.99
2018-10-02T05:05:52.032Z,99.99
2018-10-02T05:06:51.791Z,99.99
2018-10-02T05:08:52.425Z,99.99
2018-10-02T05:09:52.098Z,99.99
2018-10-02T05:10:52.115Z,99.99
2018-10-02T05:11:52.131Z,99.99
2018-10-02T05:12:52.154Z,99.99
2018-10-02T05:14:06.835Z,99.99
2018-10-02T05:14:52.185Z,99.99
2018-10-02T05:15:52.200Z,99.99
2018-10-02T05:16:52.216Z,99.99
2018-10-02T05:17:52.233Z,99.99
2018-10-02T05:18:52.246Z,99.99
2018-10-02T05:19:52.264Z,99.99
2018-10-02T05:20:52.538Z,99.99
2018-10-02T05:21:52.297Z,99.99
2018-10-02T05:22:52.317Z,99.99
2018-10-02T05:23:52.332Z,99.99
2018-10-02T05:24:52.345Z,99.99
2018-10-02T05:25:52.107Z,99.99
2018-10-02T05:26:52.380Z,99.99
2018-10-02T05:27:52.635Z,99.99
2018-10-02T05:29:07.075Z,99.99
2018-10-02T05:29:52.172Z,99.99
2018-10-02T05:30:52.196Z,99.99
2018-10-02T05:31:52.209Z,99.99
2018-10-02T05:32:52.520Z,99.99
2018-10-02T05:33:52.500Z,99.99
2018-10-02T05:34:52.605Z,99.99
2018-10-02T05:35:52.531Z,99.99
2018-10-02T05:36:52.552Z,99.99
2018-10-02T05:37:52.564Z,99.99
2018-10-02T05:38:52.584Z,99.99
2018-10-02T05:39:52.599Z,99.99
2018-10-02T05:40:52.360Z,99.99
2018-10-02T05:41:52.634Z,99.99
2018-10-02T05:42:52.887Z,99.99
2018-10-02T05:43:52.667Z,99.99
2018-10-02T05:44:52.684Z,99.99
2018-10-02T05:45:52.720Z,99.99
2018-10-02T05:46:52.718Z,99.99
2018-10-02T05:47:52.735Z,99.99
2018-10-02T05:48:52.759Z,99.99
2018-10-02T05:49:52.768Z,99.99
2018-10-02T05:50:52.528Z,99.99
2018-10-02T05:51:52.807Z,99.99
2018-10-02T05:52:52.820Z,99.99
2018-10-02T05:53:52.839Z,99.99
2018-10-02T05:54:52.855Z,99.99
2018-10-02T05:55:52.875Z,99.99
2018-10-02T05:56:52.890Z,99.99
2018-10-02T05:57:52.907Z,99.99
2018-10-02T05:58:52.927Z,99.99
2018-10-02T05:59:52.941Z,99.99
2018-10-02T06:01:07.619Z,99.99
2018-10-02T06:01:52.983Z,99.99
2018-10-02T06:02:53.006Z,99.99
2018-10-02T06:03:53.207Z,99.99
2018-10-02T06:04:53.030Z,99.99
2018-10-02T06:05:53.051Z,99.99
2018-10-02T06:06:53.079Z,99.99
2018-10-02T06:07:52.830Z,99.99
2018-10-02T06:08:53.102Z,99.99
2018-10-02T06:09:53.238Z,99.99
2018-10-02T06:10:53.142Z,99.99
2018-10-02T06:11:53.163Z,99.99
2018-10-02T06:12:53.181Z,99.99
2018-10-02T06:13:53.202Z,99.99
2018-10-02T06:14:53.220Z,99.99
2018-10-02T06:15:53.243Z,99.99
2018-10-02T06:17:07.938Z,99.99
2018-10-02T06:17:53.331Z,99.99
2018-10-02T06:18:53.301Z,99.99
2018-10-02T06:19:53.329Z,99.99
2018-10-02T06:20:53.341Z,99.99
2018-10-02T06:21:53.374Z,99.99
2018-10-02T06:22:53.384Z,99.99
2018-10-02T06:23:53.404Z,99.99
2018-10-02T06:24:53.538Z,99.99
2018-10-02T06:26:53.465Z,99.6
2018-10-02T06:27:53.229Z,99.41
2018-10-02T06:28:53.509Z,99.31
2018-10-02T06:29:53.274Z,98.74
2018-10-02T06:30:53.557Z,97.98
2018-10-02T06:31:53.316Z,97.5
2018-10-02T06:33:08.256Z,96.31
2018-10-02T06:33:53.621Z,95.75
2018-10-02T06:34:53.641Z,95.46
2018-10-02T06:35:53.662Z,94.6
2018-10-02T06:36:53.900Z,93.94
2018-10-02T06:37:53.732Z,93.94
2018-10-02T06:38:53.841Z,93.51
2018-10-02T06:39:53.758Z,92.79
2018-10-02T06:41:53.573Z,92.7
2018-10-02T06:42:53.828Z,92.74
2018-10-02T06:43:53.854Z,91.99
2018-10-02T06:44:54.032Z,91.13
2018-10-02T06:45:53.899Z,90.84
2018-10-02T06:46:53.925Z,90.36
2018-10-02T06:47:53.949Z,89.46
2018-10-02T06:49:08.632Z,88.89
2018-10-02T06:49:53.996Z,88.55
2018-10-02T06:50:54.277Z,87.21
2018-10-02T06:51:54.260Z,86.93
2018-10-02T06:52:54.071Z,86.83
2018-10-02T06:53:54.094Z,85.83
2018-10-02T06:54:53.861Z,84.59
2018-10-02T06:55:54.145Z,84.3
2018-10-02T06:56:54.244Z,83.64
2018-10-02T06:57:54.197Z,83.25
2018-10-02T06:58:54.222Z,83.35
2018-10-02T07:00:54.272Z,81.48
2018-10-02T07:01:54.040Z,81.29
2018-10-02T07:02:54.486Z,81.29
2018-10-02T07:04:09.008Z,81.82
2018-10-02T07:04:54.374Z,80.96
2018-10-02T07:05:54.398Z,81.35
2018-10-02T07:06:54.745Z,81.73
2018-10-02T07:07:54.189Z,81.48
2018-10-02T07:08:54.554Z,80.81
2018-10-02T07:09:54.495Z,81.1
2018-10-02T07:10:54.521Z,79.57
2018-10-02T07:11:54.547Z,79.04
2018-10-02T07:12:54.574Z,77.99
2018-10-02T07:13:54.596Z,77.89
2018-10-02T07:14:54.703Z,77.61
2018-10-02T07:15:54.641Z,76.79
2018-10-02T07:16:54.410Z,76.65
2018-10-02T07:17:54.692Z,77.51
2018-10-02T07:18:54.715Z,77.42
2018-10-02T07:19:54.749Z,77.03
2018-10-02T07:20:54.812Z,77.23
2018-10-02T07:21:54.789Z,77.23
2018-10-02T07:22:54.556Z,77.03
2018-10-02T07:23:54.839Z,76.65
2018-10-02T07:24:54.861Z,76.94
2018-10-02T07:25:54.886Z,77.23
2018-10-02T07:26:55.581Z,77.76
2018-10-02T07:27:55.347Z,78.05
2018-10-02T07:28:54.958Z,78.62
2018-10-02T07:29:54.986Z,78.72
2018-10-02T07:30:55.066Z,78.67
2018-10-02T07:31:55.027Z,79.06
2018-10-02T07:32:55.143Z,79.82
2018-10-02T07:33:54.899Z,80.01
2018-10-02T07:34:55.092Z,79.91
2018-10-02T07:36:09.779Z,80.39
2018-10-02T07:36:55.264Z,80.58
2018-10-02T07:37:55.160Z,80.83
2018-10-02T07:38:55.327Z,80.87
2018-10-02T07:39:54.954Z,80.87
2018-10-02T07:40:55.229Z,80.68
2018-10-02T07:41:55.319Z,80.96
2018-10-02T07:42:55.275Z,80.87
2018-10-02T07:44:55.396Z,80.01
2018-10-02T07:45:55.083Z,80.92
2018-10-02T07:46:55.364Z,80.49
2018-10-02T07:47:55.580Z,81.15
2018-10-02T07:48:55.153Z,80.44
2018-10-02T07:49:55.433Z,80.39
2018-10-02T07:50:55.526Z,79.91
2018-10-02T07:52:10.137Z,79.06
2018-10-02T07:52:55.502Z,78.58
2018-10-02T07:53:55.680Z,79.44
2018-10-02T07:54:55.544Z,78.96
2018-10-02T07:55:55.571Z,78.58
2018-10-02T07:56:55.668Z,78.43
2018-10-02T07:57:55.353Z,77.67
2018-10-02T07:58:55.425Z,77
2018-10-02T07:59:55.777Z,77.67
2018-10-02T08:02:55.834Z,77.19
2018-10-02T08:03:55.751Z,77.86
2018-10-02T08:05:55.886Z,77.67
2018-10-02T08:06:55.819Z,77.76
2018-10-02T08:08:10.500Z,77.57
2018-10-02T08:08:55.994Z,77.19
2018-10-02T08:09:55.893Z,77.19
2018-10-02T08:10:55.910Z,76.52
2018-10-02T08:11:56.166Z,77.19
2018-10-02T08:12:55.952Z,77.76
2018-10-02T08:13:55.718Z,77.67
2018-10-02T08:14:56.192Z,77.8
2018-10-02T08:15:56.025Z,76.37
2018-10-02T08:16:56.048Z,75.32
2018-10-02T08:17:56.126Z,74.11
2018-10-02T08:19:56.256Z,72.91
2018-10-02T08:20:56.305Z,72.91
2018-10-02T08:21:56.166Z,71.76
2018-10-02T08:22:56.183Z,71.86
2018-10-02T08:24:10.864Z,71.47
2018-10-02T08:24:56.226Z,71
2018-10-02T08:25:56.252Z,71.76
2018-10-02T08:26:56.459Z,71.95
2018-10-02T08:27:56.312Z,71.82
2018-10-02T08:28:56.317Z,72.58
2018-10-02T08:29:56.608Z,72.68
2018-10-02T08:30:56.373Z,72.97
2018-10-02T08:31:56.390Z,72.2
2018-10-02T08:32:56.516Z,72.97
2018-10-02T08:33:56.441Z,72.58
2018-10-02T08:34:56.208Z,72.97
2018-10-02T08:35:56.942Z,73.07
2018-10-02T08:36:56.503Z,72.49
2018-10-02T08:37:56.269Z,72.3
2018-10-02T08:39:11.214Z,71.76
2018-10-02T08:39:56.313Z,72.11
2018-10-02T08:40:56.599Z,71.86
2018-10-02T08:41:56.859Z,71.28
2018-10-02T08:42:56.383Z,71
2018-10-02T08:43:56.987Z,71.44
2018-10-02T08:44:56.859Z,71.15
2018-10-02T08:47:56.810Z,71.82
2018-10-02T08:48:56.520Z,72.39
2018-10-02T08:49:56.806Z,71.82
2018-10-02T08:50:56.989Z,72.2
2018-10-02T08:51:56.731Z,72.11
2018-10-02T08:52:56.865Z,71.76
2018-10-02T08:53:57.046Z,71.82
2018-10-02T08:54:56.912Z,72.78
2018-10-02T08:55:56.939Z,71.57
2018-10-02T08:56:56.957Z,71.76
2018-10-02T08:57:56.978Z,71.86
2018-10-02T08:58:57.010Z,72.14
2018-10-02T08:59:57.026Z,72.14
2018-10-02T09:00:57.079Z,72.53
2018-10-02T09:01:57.068Z,71.67
2018-10-02T09:02:56.859Z,71.47
2018-10-02T09:03:56.854Z,71.47
2018-10-02T09:05:57.158Z,70.17
2018-10-02T09:06:56.937Z,70.81
2018-10-02T09:07:57.200Z,71.38
2018-10-02T09:08:57.225Z,71.09
2018-10-02T09:09:57.245Z,71
2018-10-02T09:11:11.932Z,71.19
2018-10-02T09:11:57.292Z,70.33
2018-10-02T09:12:57.125Z,71
2018-10-02T09:13:57.516Z,71.19
2018-10-02T09:14:57.099Z,70.33
2018-10-02T09:15:57.967Z,70.75
2018-10-02T09:16:57.144Z,70.07
2018-10-02T09:17:57.166Z,70.17
2018-10-02T09:18:57.193Z,69.5
2018-10-02T09:19:57.486Z,68.93
2018-10-02T09:20:57.273Z,68.74
2018-10-02T09:21:57.677Z,69.5
2018-10-02T09:22:57.276Z,68.55
2018-10-02T09:23:57.796Z,68.26
2018-10-02T09:24:57.709Z,69.02
2018-10-02T09:25:57.343Z,69.5
2018-10-02T09:27:12.289Z,69.02
2018-10-02T09:27:57.797Z,68.35
2018-10-02T09:28:57.725Z,69.02
2018-10-02T09:29:57.692Z,68.8
2018-10-02T09:30:57.999Z,68.61
2018-10-02T09:31:57.731Z,68.7
2018-10-02T09:32:57.753Z,68.45
2018-10-02T09:33:57.936Z,68.35
2018-10-02T09:34:57.802Z,67.59
2018-10-02T09:35:57.564Z,67.75
2018-10-02T09:36:58.073Z,67.59
2018-10-02T09:37:57.868Z,67.4
2018-10-02T09:38:57.901Z,66.19
2018-10-02T09:40:57.936Z,63.54
2018-10-02T09:41:57.961Z,63.16
2018-10-02T09:43:12.640Z,63.35
2018-10-02T09:43:58.201Z,63.23
2018-10-02T09:44:58.025Z,63.51
2018-10-02T09:45:58.284Z,63.06
2018-10-02T09:46:58.073Z,63.32
2018-10-02T09:47:58.092Z,63.23
2018-10-02T09:48:57.896Z,63.51
2018-10-02T09:49:58.450Z,63.7
2018-10-02T09:50:58.275Z,63.8
2018-10-02T09:52:58.206Z,64.05
2018-10-02T09:53:58.228Z,64.25
2018-10-02T09:54:57.998Z,64.05
2018-10-02T09:55:58.017Z,64.09
2018-10-02T09:56:58.094Z,64.28
2018-10-02T09:57:58.320Z,63.42
2018-10-02T09:59:13.004Z,62.65
2018-10-02T09:59:58.369Z,63.13
2018-10-02T10:00:58.167Z,63.13
2018-10-02T10:01:58.410Z,63.7
2018-10-02T10:02:58.193Z,63.32
2018-10-02T10:03:58.457Z,63.03
2018-10-02T10:05:58.500Z,63.23
2018-10-02T10:06:58.264Z,63.26
2018-10-02T10:08:58.318Z,63.7
2018-10-02T10:09:58.588Z,63.6
2018-10-02T10:10:58.615Z,63.03
2018-10-02T10:11:58.636Z,63.03
2018-10-02T10:12:58.661Z,63.1
2018-10-02T10:14:13.341Z,64.25
2018-10-02T10:14:58.705Z,63.86
2018-10-02T10:15:58.724Z,63.67
2018-10-02T10:16:58.997Z,64.34
2018-10-02T10:17:58.768Z,64.05
2018-10-02T10:18:58.791Z,64.5
2018-10-02T10:19:58.816Z,65.11
2018-10-02T10:20:58.844Z,64.91
2018-10-02T10:21:58.857Z,65.01
2018-10-02T10:22:59.033Z,65.17
2018-10-02T10:23:58.901Z,65.36
2018-10-02T10:24:58.924Z,64.98
2018-10-02T10:25:58.944Z,65.17
2018-10-02T10:26:58.970Z,65.26
2018-10-02T10:27:58.988Z,65.36
2018-10-02T10:28:58.865Z,65.45
2018-10-02T10:29:59.034Z,65.07
2018-10-02T10:30:59.059Z,65.07
2018-10-02T10:31:59.075Z,66.13
2018-10-02T10:32:59.096Z,67.18
2018-10-02T10:33:58.861Z,65.64
2018-10-02T10:34:58.897Z,65.17
2018-10-02T10:35:59.162Z,66.22
2018-10-02T10:36:58.927Z,65.74
2018-10-02T10:37:59.209Z,65.17
2018-10-02T10:38:59.229Z,65.01
2018-10-02T10:39:59.355Z,64.82
2018-10-02T10:40:59.056Z,64.43
2018-10-02T10:41:59.292Z,64.43
2018-10-02T10:42:59.314Z,64.4
2018-10-02T10:43:59.337Z,64.4
2018-10-02T10:44:59.356Z,64.59
2018-10-02T10:46:14.041Z,64.88
2018-10-02T10:46:59.684Z,64.98
2018-10-02T10:47:59.424Z,64.98
2018-10-02T10:48:59.444Z,64.88
2018-10-02T10:49:59.466Z,65.17
2018-10-02T10:50:59.490Z,65.07
2018-10-02T10:51:59.512Z,65.07
2018-10-02T10:52:59.772Z,64.43
2018-10-02T10:53:59.555Z,64.69
2018-10-02T10:54:59.581Z,65.17
2018-10-02T10:55:59.594Z,65.55
2018-10-02T10:56:59.359Z,65.64
2018-10-02T10:57:59.384Z,66.31
2018-10-02T10:58:59.440Z,66.22
2018-10-02T10:59:59.424Z,65.64
2018-10-02T11:00:59.710Z,65.3
2018-10-02T11:02:14.386Z,65.2
2018-10-02T11:02:59.876Z,65.3
2018-10-02T11:03:59.770Z,64.25
2018-10-02T11:05:00.020Z,64.98
2018-10-02T11:05:59.553Z,64.78
2018-10-02T11:06:59.837Z,64.88
2018-10-02T11:07:59.854Z,65.45
2018-10-02T11:08:59.876Z,65.26
2018-10-02T11:10:59.920Z,66.22
2018-10-02T11:12:59.966Z,66.47
2018-10-02T11:15:00.005Z,65.45
2018-10-02T11:16:00.028Z,65.36
2018-10-02T11:16:59.890Z,65.93
2018-10-02T11:18:14.729Z,66.13
2018-10-02T11:19:00.092Z,66.31
2018-10-02T11:20:00.112Z,66.41
2018-10-02T11:21:00.133Z,66.5
2018-10-02T11:21:59.896Z,66.6
2018-10-02T11:23:00.179Z,67.18
2018-10-02T11:23:59.985Z,68
2018-10-02T11:25:00.223Z,68.29
2018-10-02T11:26:00.240Z,68.9
2018-10-02T11:27:00.004Z,69.66
2018-10-02T11:28:00.284Z,70.1
2018-10-02T11:29:00.305Z,70.48
2018-10-02T11:30:00.068Z,71.15
2018-10-02T11:31:00.352Z,72.01
2018-10-02T11:32:00.370Z,72.64
2018-10-02T11:33:15.050Z,73.22
2018-10-02T11:34:15.071Z,73.88
2018-10-02T11:35:00.439Z,74.04
2018-10-02T11:36:00.197Z,75.09
2018-10-02T11:37:00.478Z,75.09
2018-10-02T11:38:00.238Z,75.57
2018-10-02T11:39:00.521Z,75.66
2018-10-02T11:40:00.539Z,75.66
2018-10-02T11:41:00.302Z,77.19
2018-10-02T11:42:00.322Z,77.38
2018-10-02T11:43:00.599Z,77.47
2018-10-02T11:44:00.696Z,77.28
2018-10-02T11:45:01.009Z,78.14
2018-10-02T11:46:00.663Z,79.38
2018-10-02T11:47:00.684Z,79.77
2018-10-02T11:48:00.710Z,79.96
2018-10-02T11:49:15.443Z,79
2018-10-02T11:50:00.946Z,79.57
2018-10-02T11:51:01.074Z,79.77
2018-10-02T11:52:00.534Z,80.15
2018-10-02T11:53:00.553Z,79.86
2018-10-02T11:54:00.834Z,80.43
2018-10-02T11:55:00.853Z,80.43
2018-10-02T11:57:00.895Z,81.29
2018-10-02T11:58:00.919Z,81.48
2018-10-02T11:59:00.941Z,81.48
2018-10-02T12:00:00.956Z,81.1
2018-10-02T12:01:01.212Z,80.81
2018-10-02T12:02:00.996Z,81.2
2018-10-02T12:03:01.017Z,81.86
2018-10-02T12:04:01.040Z,81.14
2018-10-02T12:05:01.061Z,80.57
2018-10-02T12:06:01.083Z,81.33
2018-10-02T12:07:01.106Z,80.95
2018-10-02T12:08:00.916Z,81.43
2018-10-02T12:09:01.327Z,81.43
2018-10-02T12:10:01.189Z,81.71
2018-10-02T12:11:01.186Z,81.58
2018-10-02T12:12:01.207Z,80.81
2018-10-02T12:13:01.309Z,81.1
2018-10-02T12:14:01.574Z,81.01
2018-10-02T12:16:01.294Z,81.2
2018-10-02T12:17:01.310Z,81.33
2018-10-02T12:18:01.435Z,81.2
2018-10-02T12:19:01.355Z,81.29
2018-10-02T12:20:02.127Z,82.15
2018-10-02T12:21:16.057Z,82.91
2018-10-02T12:22:01.418Z,82.06
2018-10-02T12:23:01.437Z,81.29
2018-10-02T12:24:01.458Z,81.1
2018-10-02T12:25:01.481Z,81.48
2018-10-02T12:26:01.500Z,81.67
2018-10-02T12:27:01.520Z,81.86
2018-10-02T12:28:01.539Z,81.1
2018-10-02T12:29:01.562Z,81.01
2018-10-02T12:30:01.579Z,81.1
2018-10-02T12:31:01.343Z,81.67
2018-10-02T12:32:01.625Z,81.2
2018-10-02T12:33:01.642Z,81.58
2018-10-02T12:34:01.407Z,81.58
2018-10-02T12:35:01.683Z,81.67
2018-10-02T12:36:01.709Z,81.2
2018-10-02T12:37:16.386Z,80.91
2018-10-02T12:38:01.744Z,81.01
2018-10-02T12:39:01.509Z,81.01
2018-10-02T12:40:01.788Z,80.62
2018-10-02T12:41:01.808Z,79.96
2018-10-02T12:42:01.828Z,79.96
2018-10-02T12:43:01.591Z,80.43
2018-10-02T12:44:01.872Z,80.91
2018-10-02T12:47:02.029Z,81.01
2018-10-02T12:48:01.698Z,80.72
2018-10-02T12:49:01.973Z,80.62
2018-10-02T12:50:01.994Z,81.1
2018-10-02T12:51:02.019Z,81.29
2018-10-02T12:52:02.033Z,80.72
2018-10-02T12:53:16.805Z,81.01
2018-10-02T12:54:02.079Z,81.1
2018-10-02T12:55:01.837Z,81.29
2018-10-02T12:56:01.858Z,81.25
2018-10-02T12:57:02.137Z,81.73
2018-10-02T12:58:02.166Z,81.25
2018-10-02T12:59:02.177Z,81.25
2018-10-02T13:00:02.196Z,81.82
2018-10-02T13:01:01.960Z,81.54
2018-10-02T13:02:02.249Z,81.54
2018-10-02T13:03:02.260Z,81.73
2018-10-02T13:04:02.281Z,81.44
2018-10-02T13:05:02.299Z,81.44
2018-10-02T13:06:02.320Z,81.25
2018-10-02T13:07:02.546Z,81.63
2018-10-02T13:08:02.361Z,81.73
2018-10-02T13:09:17.098Z,81.92
2018-10-02T13:10:02.522Z,82.59
2018-10-02T13:11:02.421Z,82.97
2018-10-02T13:12:02.447Z,83.44
2018-10-02T13:13:02.552Z,84.49
2018-10-02T13:14:02.223Z,85.35
2018-10-02T13:15:02.515Z,85.35
2018-10-02T13:16:02.519Z,86.02
2018-10-02T13:18:02.562Z,86.11
2018-10-02T13:19:02.580Z,86.49
2018-10-02T13:20:02.844Z,86.98
2018-10-02T13:21:02.623Z,86.93
2018-10-02T13:22:02.642Z,87.6
2018-10-02T13:23:02.664Z,88.74
2018-10-02T13:24:17.343Z,89.79
2018-10-02T13:25:02.445Z,89.79
2018-10-02T13:26:02.726Z,89.98
2018-10-02T13:27:02.486Z,90.36
2018-10-02T13:29:02.783Z,91.6
2018-10-02T13:30:02.803Z,91.79
2018-10-02T13:31:02.823Z,92.08
2018-10-02T13:32:02.606Z,92.98
2018-10-02T13:33:02.864Z,93.84
2018-10-02T13:34:02.887Z,93.74
2018-10-02T13:35:02.907Z,94.79
2018-10-02T13:36:02.923Z,95.27
2018-10-02T13:37:02.942Z,95.46
2018-10-02T13:38:03.023Z,95.75